sensor_id;sensor_type;location;lat;lon;timestamp;pressure;altitude;pressure_sealevel;temperature;humidity
61478;BME280;47345;52.334;10.392;2022-11-20T00:01:42;100584.67;;;-1.10;78.83
61478;BME280;47345;52.334;10.392;2022-11-20T00:04:12;100577.58;;;-1.09;78.80
61478;BME280;47345;52.334;10.392;2022-11-20T00:06:43;100574.23;;;-1.07;78.77
61478;BME280;47345;52.334;10.392;2022-11-20T00:09:14;100574.42;;;-1.08;78.39
61478;BME280;47345;52.334;10.392;2022-11-20T00:11:45;100573.17;;;-1.08;78.38
61478;BME280;47345;52.334;10.392;2022-11-20T00:14:16;100573.56;;;-1.10;78.29
61478;BME280;47345;52.334;10.392;2022-11-20T00:16:46;100568.29;;;-1.13;78.21
61478;BME280;47345;52.334;10.392;2022-11-20T00:19:17;100565.65;;;-1.15;78.42
61478;BME280;47345;52.334;10.392;2022-11-20T00:21:48;100571.38;;;-1.18;78.35
61478;BME280;47345;52.334;10.392;2022-11-20T00:24:20;100571.06;;;-1.21;78.30
61478;BME280;47345;52.334;10.392;2022-11-20T00:26:51;100565.27;;;-1.26;78.20
61478;BME280;47345;52.334;10.392;2022-11-20T00:29:21;100566.91;;;-1.30;78.00
61478;BME280;47345;52.334;10.392;2022-11-20T00:31:52;100563.66;;;-1.34;78.27
61478;BME280;47345;52.334;10.392;2022-11-20T00:34:22;100563.89;;;-1.37;78.43
61478;BME280;47345;52.334;10.392;2022-11-20T00:36:53;100563.65;;;-1.40;78.52
61478;BME280;47345;52.334;10.392;2022-11-20T00:39:24;100560.96;;;-1.42;78.44
61478;BME280;47345;52.334;10.392;2022-11-20T00:41:55;100555.99;;;-1.45;78.63
61478;BME280;47345;52.334;10.392;2022-11-20T00:44:26;100559.77;;;-1.47;78.67
61478;BME280;47345;52.334;10.392;2022-11-20T00:46:56;100561.48;;;-1.51;78.39
61478;BME280;47345;52.334;10.392;2022-11-20T00:49:27;100556.90;;;-1.54;78.34
61478;BME280;47345;52.334;10.392;2022-11-20T00:51:58;100554.45;;;-1.56;78.48
61478;BME280;47345;52.334;10.392;2022-11-20T00:54:29;100555.08;;;-1.59;78.60
61478;BME280;47345;52.334;10.392;2022-11-20T00:57:00;100558.35;;;-1.62;78.32
61478;BME280;47345;52.334;10.392;2022-11-20T00:59:30;100560.12;;;-1.64;78.55
61478;BME280;47345;52.334;10.392;2022-11-20T01:02:01;100557.20;;;-1.65;78.51
61478;BME280;47345;52.334;10.392;2022-11-20T01:04:32;100559.46;;;-1.64;78.77
61478;BME280;47345;52.334;10.392;2022-11-20T01:07:03;100556.05;;;-1.64;78.80
61478;BME280;47345;52.334;10.392;2022-11-20T01:09:33;100559.64;;;-1.64;78.65
61478;BME280;47345;52.334;10.392;2022-11-20T01:12:05;100559.59;;;-1.64;78.48
61478;BME280;47345;52.334;10.392;2022-11-20T01:14:37;100557.89;;;-1.63;78.83
61478;BME280;47345;52.334;10.392;2022-11-20T01:17:07;100554.33;;;-1.61;78.88
61478;BME280;47345;52.334;10.392;2022-11-20T01:19:38;100553.33;;;-1.58;79.06
61478;BME280;47345;52.334;10.392;2022-11-20T01:22:09;100547.47;;;-1.56;78.88
61478;BME280;47345;52.334;10.392;2022-11-20T01:24:39;100541.73;;;-1.54;78.93
61478;BME280;47345;52.334;10.392;2022-11-20T01:27:10;100539.88;;;-1.51;78.79
61478;BME280;47345;52.334;10.392;2022-11-20T01:29:40;100537.30;;;-1.50;78.46
61478;BME280;47345;52.334;10.392;2022-11-20T01:32:11;100537.70;;;-1.51;78.76
61478;BME280;47345;52.334;10.392;2022-11-20T01:34:41;100537.88;;;-1.49;78.60
61478;BME280;47345;52.334;10.392;2022-11-20T01:37:11;100534.18;;;-1.47;78.60
61478;BME280;47345;52.334;10.392;2022-11-20T01:39:42;100530.21;;;-1.44;78.72
61478;BME280;47345;52.334;10.392;2022-11-20T01:42:13;100527.99;;;-1.44;78.50
61478;BME280;47345;52.334;10.392;2022-11-20T01:45:01;100524.02;;;-1.41;78.53
61478;BME280;47345;52.334;10.392;2022-11-20T01:47:35;100520.66;;;-1.40;78.52
61478;BME280;47345;52.334;10.392;2022-11-20T01:50:13;100522.36;;;-1.37;78.52
61478;BME280;47345;52.334;10.392;2022-11-20T01:52:44;100520.30;;;-1.36;78.52
61478;BME280;47345;52.334;10.392;2022-11-20T01:55:21;100520.90;;;-1.32;78.54
61478;BME280;47345;52.334;10.392;2022-11-20T01:57:52;100521.71;;;-1.29;78.52
61478;BME280;47345;52.334;10.392;2022-11-20T02:00:23;100509.69;;;-1.27;78.59
61478;BME280;47345;52.334;10.392;2022-11-20T02:02:57;100510.80;;;-1.23;78.51
61478;BME280;47345;52.334;10.392;2022-11-20T02:05:34;100508.79;;;-1.20;78.37
61478;BME280;47345;52.334;10.392;2022-11-20T02:08:06;100513.58;;;-1.18;78.08
61478;BME280;47345;52.334;10.392;2022-11-20T02:10:36;100510.95;;;-1.16;78.28
61478;BME280;47345;52.334;10.392;2022-11-20T02:13:07;100511.21;;;-1.13;78.66
61478;BME280;47345;52.334;10.392;2022-11-20T02:15:56;100512.06;;;-1.11;78.47
61478;BME280;47345;52.334;10.392;2022-11-20T02:18:27;100509.87;;;-1.10;78.22
61478;BME280;47345;52.334;10.392;2022-11-20T02:21:02;100506.93;;;-1.09;78.24
61478;BME280;47345;52.334;10.392;2022-11-20T02:23:39;100499.10;;;-1.08;78.21
61478;BME280;47345;52.334;10.392;2022-11-20T02:26:14;100503.45;;;-1.07;78.19
61478;BME280;47345;52.334;10.392;2022-11-20T02:28:46;100498.13;;;-1.05;78.17
61478;BME280;47345;52.334;10.392;2022-11-20T02:31:17;100498.11;;;-1.03;77.95
61478;BME280;47345;52.334;10.392;2022-11-20T02:33:47;100503.32;;;-1.01;78.26
61478;BME280;47345;52.334;10.392;2022-11-20T02:36:17;100500.67;;;-0.99;78.17
61478;BME280;47345;52.334;10.392;2022-11-20T02:38:49;100498.89;;;-0.98;78.17
61478;BME280;47345;52.334;10.392;2022-11-20T02:41:19;100498.39;;;-0.96;78.16
61478;BME280;47345;52.334;10.392;2022-11-20T02:43:50;100496.01;;;-0.95;78.10
61478;BME280;47345;52.334;10.392;2022-11-20T02:46:20;100496.83;;;-0.95;78.08
61478;BME280;47345;52.334;10.392;2022-11-20T02:48:50;100495.14;;;-0.94;78.00
61478;BME280;47345;52.334;10.392;2022-11-20T02:51:21;100492.35;;;-0.93;78.13
61478;BME280;47345;52.334;10.392;2022-11-20T02:53:51;100485.56;;;-0.91;78.08
61478;BME280;47345;52.334;10.392;2022-11-20T02:56:22;100487.15;;;-0.88;78.19
61478;BME280;47345;52.334;10.392;2022-11-20T02:58:52;100488.57;;;-0.86;78.14
61478;BME280;47345;52.334;10.392;2022-11-20T03:01:23;100486.98;;;-0.85;77.93
61478;BME280;47345;52.334;10.392;2022-11-20T03:03:53;100479.23;;;-0.84;78.15
61478;BME280;47345;52.334;10.392;2022-11-20T03:06:25;100474.69;;;-0.83;78.34
61478;BME280;47345;52.334;10.392;2022-11-20T03:08:55;100477.10;;;-0.82;78.04
61478;BME280;47345;52.334;10.392;2022-11-20T03:11:26;100474.61;;;-0.82;77.81
61478;BME280;47345;52.334;10.392;2022-11-20T03:13:57;100470.34;;;-0.83;77.83
61478;BME280;47345;52.334;10.392;2022-11-20T03:16:27;100472.69;;;-0.83;77.61
61478;BME280;47345;52.334;10.392;2022-11-20T03:18:58;100472.05;;;-0.84;77.68
61478;BME280;47345;52.334;10.392;2022-11-20T03:21:29;100469.04;;;-0.84;77.53
61478;BME280;47345;52.334;10.392;2022-11-20T03:23:59;100471.08;;;-0.85;77.77
61478;BME280;47345;52.334;10.392;2022-11-20T03:26:30;100473.78;;;-0.85;78.03
61478;BME280;47345;52.334;10.392;2022-11-20T03:29:03;100478.03;;;-0.86;77.64
61478;BME280;47345;52.334;10.392;2022-11-20T03:31:35;100472.27;;;-0.88;77.73
61478;BME280;47345;52.334;10.392;2022-11-20T03:34:06;100474.63;;;-0.88;77.74
61478;BME280;47345;52.334;10.392;2022-11-20T03:36:38;100475.42;;;-0.90;77.73
61478;BME280;47345;52.334;10.392;2022-11-20T03:39:09;100472.20;;;-0.91;77.59
61478;BME280;47345;52.334;10.392;2022-11-20T03:41:41;100468.31;;;-0.94;77.68
61478;BME280;47345;52.334;10.392;2022-11-20T03:44:13;100469.92;;;-0.94;77.73
61478;BME280;47345;52.334;10.392;2022-11-20T03:46:44;100470.72;;;-0.95;77.72
61478;BME280;47345;52.334;10.392;2022-11-20T03:49:14;100470.19;;;-0.97;77.64
61478;BME280;47345;52.334;10.392;2022-11-20T03:51:45;100467.27;;;-0.98;77.54
61478;BME280;47345;52.334;10.392;2022-11-20T03:54:17;100463.10;;;-1.00;77.92
61478;BME280;47345;52.334;10.392;2022-11-20T03:56:47;100463.12;;;-1.02;77.67
61478;BME280;47345;52.334;10.392;2022-11-20T03:59:18;100464.20;;;-1.04;77.82
61478;BME280;47345;52.334;10.392;2022-11-20T04:01:49;100456.61;;;-1.06;77.70
61478;BME280;47345;52.334;10.392;2022-11-20T04:04:20;100457.70;;;-1.07;77.87
61478;BME280;47345;52.334;10.392;2022-11-20T04:06:51;100456.34;;;-1.10;77.80
61478;BME280;47345;52.334;10.392;2022-11-20T04:09:22;100453.17;;;-1.13;77.88
61478;BME280;47345;52.334;10.392;2022-11-20T04:11:52;100451.11;;;-1.14;77.80
61478;BME280;47345;52.334;10.392;2022-11-20T04:14:23;100446.92;;;-1.13;77.97
61478;BME280;47345;52.334;10.392;2022-11-20T04:16:54;100445.42;;;-1.14;78.19
61478;BME280;47345;52.334;10.392;2022-11-20T04:19:24;100443.16;;;-1.17;78.07
61478;BME280;47345;52.334;10.392;2022-11-20T04:21:55;100445.23;;;-1.18;78.21
61478;BME280;47345;52.334;10.392;2022-11-20T04:24:26;100445.21;;;-1.18;78.29
61478;BME280;47345;52.334;10.392;2022-11-20T04:26:56;100443.64;;;-1.20;77.92
61478;BME280;47345;52.334;10.392;2022-11-20T04:29:27;100438.05;;;-1.26;78.09
61478;BME280;47345;52.334;10.392;2022-11-20T04:31:57;100436.27;;;-1.28;77.63
61478;BME280;47345;52.334;10.392;2022-11-20T04:34:28;100433.80;;;-1.30;78.31
61478;BME280;47345;52.334;10.392;2022-11-20T04:36:59;100435.66;;;-1.31;78.50
61478;BME280;47345;52.334;10.392;2022-11-20T04:39:30;100428.80;;;-1.30;78.30
61478;BME280;47345;52.334;10.392;2022-11-20T04:42:00;100427.03;;;-1.30;78.35
61478;BME280;47345;52.334;10.392;2022-11-20T04:44:47;100426.09;;;-1.28;78.68
61478;BME280;47345;52.334;10.392;2022-11-20T04:47:17;100423.52;;;-1.29;78.06
61478;BME280;47345;52.334;10.392;2022-11-20T04:49:47;100425.83;;;-1.31;78.29
61478;BME280;47345;52.334;10.392;2022-11-20T04:52:18;100429.73;;;-1.31;78.28
61478;BME280;47345;52.334;10.392;2022-11-20T04:54:49;100428.86;;;-1.31;78.21
61478;BME280;47345;52.334;10.392;2022-11-20T04:57:22;100423.58;;;-1.30;78.38
61478;BME280;47345;52.334;10.392;2022-11-20T04:59:53;100420.98;;;-1.27;78.59
61478;BME280;47345;52.334;10.392;2022-11-20T05:02:26;100420.68;;;-1.24;78.66
61478;BME280;47345;52.334;10.392;2022-11-20T05:05:01;100418.43;;;-1.21;78.49
61478;BME280;47345;52.334;10.392;2022-11-20T05:07:34;100420.10;;;-1.17;78.19
61478;BME280;47345;52.334;10.392;2022-11-20T05:10:16;100422.48;;;-1.14;78.38
61478;BME280;47345;52.334;10.392;2022-11-20T05:12:51;100418.52;;;-1.11;78.10
61478;BME280;47345;52.334;10.392;2022-11-20T05:15:30;100419.89;;;-1.09;78.26
61478;BME280;47345;52.334;10.392;2022-11-20T05:18:03;100417.56;;;-1.05;78.08
61478;BME280;47345;52.334;10.392;2022-11-20T05:20:36;100412.70;;;-1.03;77.86
61478;BME280;47345;52.334;10.392;2022-11-20T05:23:12;100409.55;;;-1.01;77.61
61478;BME280;47345;52.334;10.392;2022-11-20T05:25:45;100401.88;;;-1.00;77.90
61478;BME280;47345;52.334;10.392;2022-11-20T05:28:30;100393.52;;;-0.98;77.56
61478;BME280;47345;52.334;10.392;2022-11-20T05:31:11;100395.19;;;-0.99;77.56
61478;BME280;47345;52.334;10.392;2022-11-20T05:33:48;100418.10;;;-0.97;77.65
61478;BME280;47345;52.334;10.392;2022-11-20T05:36:25;100417.00;;;-0.99;77.64
61478;BME280;47345;52.334;10.392;2022-11-20T05:38:57;100425.48;;;-0.99;77.81
61478;BME280;47345;52.334;10.392;2022-11-20T05:41:36;100423.31;;;-0.99;78.08
61478;BME280;47345;52.334;10.392;2022-11-20T05:44:12;100423.36;;;-1.00;78.41
61478;BME280;47345;52.334;10.392;2022-11-20T05:46:54;100425.98;;;-0.97;78.26
61478;BME280;47345;52.334;10.392;2022-11-20T05:49:33;100417.52;;;-0.93;78.23
61478;BME280;47345;52.334;10.392;2022-11-20T05:52:08;100413.57;;;-0.88;78.09
61478;BME280;47345;52.334;10.392;2022-11-20T05:54:45;100406.70;;;-0.84;78.22
61478;BME280;47345;52.334;10.392;2022-11-20T05:57:19;100405.89;;;-0.80;77.97
61478;BME280;47345;52.334;10.392;2022-11-20T05:59:57;100405.44;;;-0.78;77.94
61478;BME280;47345;52.334;10.392;2022-11-20T06:02:30;100400.31;;;-0.77;77.87
61478;BME280;47345;52.334;10.392;2022-11-20T06:05:05;100397.15;;;-0.75;77.96
61478;BME280;47345;52.334;10.392;2022-11-20T06:07:43;100395.45;;;-0.74;77.70
61478;BME280;47345;52.334;10.392;2022-11-20T06:10:21;100397.60;;;-0.72;77.88
61478;BME280;47345;52.334;10.392;2022-11-20T06:12:58;100397.32;;;-0.71;77.93
61478;BME280;47345;52.334;10.392;2022-11-20T06:15:31;100398.96;;;-0.71;77.86
61478;BME280;47345;52.334;10.392;2022-11-20T06:18:11;100396.15;;;-0.70;78.01
61478;BME280;47345;52.334;10.392;2022-11-20T06:20:58;100399.69;;;-0.70;78.05
61478;BME280;47345;52.334;10.392;2022-11-20T06:23:35;100393.61;;;-0.68;77.99
61478;BME280;47345;52.334;10.392;2022-11-20T06:26:13;100391.80;;;-0.66;78.01
61478;BME280;47345;52.334;10.392;2022-11-20T06:28:50;100393.98;;;-0.64;78.01
61478;BME280;47345;52.334;10.392;2022-11-20T06:31:25;100385.10;;;-0.63;77.92
61478;BME280;47345;52.334;10.392;2022-11-20T06:33:59;100384.08;;;-0.64;77.88
61478;BME280;47345;52.334;10.392;2022-11-20T06:36:32;100384.88;;;-0.63;77.75
61478;BME280;47345;52.334;10.392;2022-11-20T06:39:05;100382.92;;;-0.61;78.02
61478;BME280;47345;52.334;10.392;2022-11-20T06:41:43;100383.36;;;-0.60;77.86
61478;BME280;47345;52.334;10.392;2022-11-20T06:44:17;100383.14;;;-0.59;77.79
61478;BME280;47345;52.334;10.392;2022-11-20T06:47:01;100382.00;;;-0.56;77.90
61478;BME280;47345;52.334;10.392;2022-11-20T06:49:34;100382.20;;;-0.55;77.92
61478;BME280;47345;52.334;10.392;2022-11-20T06:52:15;100382.34;;;-0.54;77.72
61478;BME280;47345;52.334;10.392;2022-11-20T06:54:51;100375.10;;;-0.55;77.64
61478;BME280;47345;52.334;10.392;2022-11-20T06:57:24;100372.69;;;-0.55;78.08
61478;BME280;47345;52.334;10.392;2022-11-20T07:00:00;100370.38;;;-0.51;78.23
61478;BME280;47345;52.334;10.392;2022-11-20T07:02:35;100368.48;;;-0.48;78.27
61478;BME280;47345;52.334;10.392;2022-11-20T07:05:10;100373.01;;;-0.47;78.04
61478;BME280;47345;52.334;10.392;2022-11-20T07:07:49;100372.32;;;-0.45;78.14
61478;BME280;47345;52.334;10.392;2022-11-20T07:10:22;100373.34;;;-0.44;78.15
61478;BME280;47345;52.334;10.392;2022-11-20T07:12:55;100374.39;;;-0.42;78.08
61478;BME280;47345;52.334;10.392;2022-11-20T07:15:30;100374.21;;;-0.40;77.91
61478;BME280;47345;52.334;10.392;2022-11-20T07:18:09;100374.38;;;-0.38;77.89
61478;BME280;47345;52.334;10.392;2022-11-20T07:20:42;100367.68;;;-0.37;77.85
61478;BME280;47345;52.334;10.392;2022-11-20T07:23:16;100366.82;;;-0.36;77.90
61478;BME280;47345;52.334;10.392;2022-11-20T07:25:49;100374.29;;;-0.33;77.75
61478;BME280;47345;52.334;10.392;2022-11-20T07:28:26;100367.85;;;-0.32;77.68
61478;BME280;47345;52.334;10.392;2022-11-20T07:31:00;100371.44;;;-0.30;77.38
61478;BME280;47345;52.334;10.392;2022-11-20T07:33:34;100368.58;;;-0.28;77.20
61478;BME280;47345;52.334;10.392;2022-11-20T07:36:15;100368.75;;;-0.28;77.19
61478;BME280;47345;52.334;10.392;2022-11-20T07:38:58;100371.64;;;-0.28;77.34
61478;BME280;47345;52.334;10.392;2022-11-20T07:41:31;100374.69;;;-0.26;77.41
61478;BME280;47345;52.334;10.392;2022-11-20T07:44:08;100372.79;;;-0.23;77.24
61478;BME280;47345;52.334;10.392;2022-11-20T07:46:42;100372.30;;;-0.22;77.08
61478;BME280;47345;52.334;10.392;2022-11-20T07:49:15;100367.82;;;-0.20;77.14
61478;BME280;47345;52.334;10.392;2022-11-20T07:51:49;100370.45;;;-0.19;77.21
61478;BME280;47345;52.334;10.392;2022-11-20T07:54:26;100370.64;;;-0.16;77.26
61478;BME280;47345;52.334;10.392;2022-11-20T07:57:05;100367.02;;;-0.13;77.25
61478;BME280;47345;52.334;10.392;2022-11-20T07:59:39;100374.65;;;-0.12;76.93
61478;BME280;47345;52.334;10.392;2022-11-20T08:02:14;100376.41;;;-0.12;76.61
61478;BME280;47345;52.334;10.392;2022-11-20T08:04:48;100376.09;;;-0.11;76.70
61478;BME280;47345;52.334;10.392;2022-11-20T08:07:23;100374.67;;;-0.09;76.49
61478;BME280;47345;52.334;10.392;2022-11-20T08:09:59;100380.91;;;-0.07;76.47
61478;BME280;47345;52.334;10.392;2022-11-20T08:12:34;100379.50;;;-0.05;76.42
61478;BME280;47345;52.334;10.392;2022-11-20T08:15:29;100382.70;;;-0.05;75.98
61478;BME280;47345;52.334;10.392;2022-11-20T08:18:14;100377.80;;;-0.06;75.59
61478;BME280;47345;52.334;10.392;2022-11-20T08:21:06;100377.95;;;-0.09;75.61
61478;BME280;47345;52.334;10.392;2022-11-20T08:23:45;100382.02;;;-0.07;75.75
61478;BME280;47345;52.334;10.392;2022-11-20T08:26:19;100383.52;;;-0.04;75.62
61478;BME280;47345;52.334;10.392;2022-11-20T08:29:06;100384.52;;;-0.01;75.48
61478;BME280;47345;52.334;10.392;2022-11-20T08:31:40;100386.77;;;0.02;75.50
61478;BME280;47345;52.334;10.392;2022-11-20T08:34:18;100388.38;;;0.02;75.18
61478;BME280;47345;52.334;10.392;2022-11-20T08:36:53;100384.21;;;0.02;75.08
61478;BME280;47345;52.334;10.392;2022-11-20T08:39:28;100383.34;;;0.02;75.04
61478;BME280;47345;52.334;10.392;2022-11-20T08:42:02;100381.09;;;0.01;75.01
61478;BME280;47345;52.334;10.392;2022-11-20T08:44:35;100384.30;;;0.03;75.16
61478;BME280;47345;52.334;10.392;2022-11-20T08:47:09;100381.83;;;0.05;75.04
61478;BME280;47345;52.334;10.392;2022-11-20T08:49:49;100381.33;;;0.06;75.01
61478;BME280;47345;52.334;10.392;2022-11-20T08:52:30;100378.37;;;0.09;75.07
61478;BME280;47345;52.334;10.392;2022-11-20T08:55:13;100377.64;;;0.13;74.93
61478;BME280;47345;52.334;10.392;2022-11-20T08:57:50;100363.14;;;0.18;74.93
61478;BME280;47345;52.334;10.392;2022-11-20T09:00:23;100355.37;;;0.22;74.62
61478;BME280;47345;52.334;10.392;2022-11-20T09:02:58;100353.66;;;0.25;74.44
61478;BME280;47345;52.334;10.392;2022-11-20T09:05:35;100357.23;;;0.29;74.35
61478;BME280;47345;52.334;10.392;2022-11-20T09:08:11;100361.63;;;0.34;74.45
61478;BME280;47345;52.334;10.392;2022-11-20T09:10:46;100357.85;;;0.39;74.55
61478;BME280;47345;52.334;10.392;2022-11-20T09:13:27;100359.56;;;0.44;74.60
61478;BME280;47345;52.334;10.392;2022-11-20T09:16:04;100366.13;;;0.47;74.29
61478;BME280;47345;52.334;10.392;2022-11-20T09:18:39;100366.74;;;0.51;74.52
61478;BME280;47345;52.334;10.392;2022-11-20T09:21:15;100370.02;;;0.56;74.16
61478;BME280;47345;52.334;10.392;2022-11-20T09:23:49;100371.10;;;0.60;73.80
61478;BME280;47345;52.334;10.392;2022-11-20T09:26:28;100370.39;;;0.66;73.73
61478;BME280;47345;52.334;10.392;2022-11-20T09:29:04;100363.13;;;0.70;73.40
61478;BME280;47345;52.334;10.392;2022-11-20T09:31:37;100365.89;;;0.73;73.32
61478;BME280;47345;52.334;10.392;2022-11-20T09:34:10;100359.20;;;0.77;73.30
61478;BME280;47345;52.334;10.392;2022-11-20T09:36:42;100364.85;;;0.80;73.10
61478;BME280;47345;52.334;10.392;2022-11-20T09:39:17;100366.44;;;0.84;73.07
61478;BME280;47345;52.334;10.392;2022-11-20T09:42:14;100363.58;;;0.87;73.20
61478;BME280;47345;52.334;10.392;2022-11-20T09:48:24;100357.11;;;0.95;73.25
61478;BME280;47345;52.334;10.392;2022-11-20T09:51:04;100352.58;;;0.95;73.04
61478;BME280;47345;52.334;10.392;2022-11-20T09:53:50;100350.80;;;0.99;72.91
61478;BME280;47345;52.334;10.392;2022-11-20T09:56:30;100339.68;;;1.02;73.27
61478;BME280;47345;52.334;10.392;2022-11-20T09:59:12;100332.80;;;1.06;73.27
61478;BME280;47345;52.334;10.392;2022-11-20T10:01:50;100336.48;;;1.11;73.35
61478;BME280;47345;52.334;10.392;2022-11-20T10:04:28;100340.24;;;1.14;72.96
61478;BME280;47345;52.334;10.392;2022-11-20T10:07:16;100352.02;;;1.18;73.16
61478;BME280;47345;52.334;10.392;2022-11-20T10:10:18;100354.27;;;1.23;72.77
61478;BME280;47345;52.334;10.392;2022-11-20T10:13:06;100350.91;;;1.25;72.70
61478;BME280;47345;52.334;10.392;2022-11-20T10:15:49;100358.45;;;1.28;72.36
61478;BME280;47345;52.334;10.392;2022-11-20T10:18:36;100354.24;;;1.32;72.21
61478;BME280;47345;52.334;10.392;2022-11-20T10:21:22;100346.83;;;1.33;71.77
61478;BME280;47345;52.334;10.392;2022-11-20T10:27:37;100339.39;;;1.44;71.50
61478;BME280;47345;52.334;10.392;2022-11-20T10:30:14;100335.09;;;1.48;71.34
61478;BME280;47345;52.334;10.392;2022-11-20T10:32:50;100329.17;;;1.51;70.86
61478;BME280;47345;52.334;10.392;2022-11-20T10:35:28;100324.41;;;1.54;70.52
61478;BME280;47345;52.334;10.392;2022-11-20T10:38:11;100327.16;;;1.55;70.86
61478;BME280;47345;52.334;10.392;2022-11-20T10:41:04;100327.27;;;1.57;70.72
61478;BME280;47345;52.334;10.392;2022-11-20T10:44:10;100326.39;;;1.57;70.58
61478;BME280;47345;52.334;10.392;2022-11-20T10:46:47;100323.91;;;1.55;70.23
61478;BME280;47345;52.334;10.392;2022-11-20T10:49:23;100328.98;;;1.55;70.56
61478;BME280;47345;52.334;10.392;2022-11-20T10:52:02;100326.05;;;1.55;70.71
61478;BME280;47345;52.334;10.392;2022-11-20T10:54:49;100320.73;;;1.60;71.03
61478;BME280;47345;52.334;10.392;2022-11-20T10:57:47;100322.94;;;1.63;71.06
61478;BME280;47345;52.334;10.392;2022-11-20T11:00:30;100328.02;;;1.62;71.09
61478;BME280;47345;52.334;10.392;2022-11-20T11:03:24;100323.70;;;1.60;70.81
61478;BME280;47345;52.334;10.392;2022-11-20T11:06:10;100321.91;;;1.60;71.21
61478;BME280;47345;52.334;10.392;2022-11-20T11:08:55;100318.58;;;1.61;71.02
61478;BME280;47345;52.334;10.392;2022-11-20T11:11:35;100312.60;;;1.64;70.82
61478;BME280;47345;52.334;10.392;2022-11-20T11:14:16;100312.76;;;1.68;70.44
61478;BME280;47345;52.334;10.392;2022-11-20T11:16:58;100312.98;;;1.70;70.01
61478;BME280;47345;52.334;10.392;2022-11-20T11:19:33;100314.14;;;1.75;70.15
61478;BME280;47345;52.334;10.392;2022-11-20T11:22:17;100313.27;;;1.80;70.22
61478;BME280;47345;52.334;10.392;2022-11-20T11:24:59;100314.14;;;1.85;70.10
61478;BME280;47345;52.334;10.392;2022-11-20T11:27:37;100309.61;;;1.92;70.23
61478;BME280;47345;52.334;10.392;2022-11-20T11:30:23;100304.16;;;2.02;70.32
61478;BME280;47345;52.334;10.392;2022-11-20T11:33:20;100307.64;;;2.10;70.15
61478;BME280;47345;52.334;10.392;2022-11-20T11:35:55;100287.95;;;2.17;70.35
61478;BME280;47345;52.334;10.392;2022-11-20T11:38:38;100291.55;;;2.24;70.24
61478;BME280;47345;52.334;10.392;2022-11-20T11:41:20;100297.38;;;2.30;70.37
61478;BME280;47345;52.334;10.392;2022-11-20T11:44:17;100294.41;;;2.31;69.70
61478;BME280;47345;52.334;10.392;2022-11-20T11:47:17;100293.35;;;2.34;69.58
61478;BME280;47345;52.334;10.392;2022-11-20T11:50:13;100289.13;;;2.35;69.30
61478;BME280;47345;52.334;10.392;2022-11-20T11:55:40;100291.24;;;2.44;69.77
61478;BME280;47345;52.334;10.392;2022-11-20T11:58:40;100279.67;;;2.46;69.86
61478;BME280;47345;52.334;10.392;2022-11-20T12:01:24;100273.78;;;2.51;69.43
61478;BME280;47345;52.334;10.392;2022-11-20T12:04:10;100278.82;;;2.53;69.39
61478;BME280;47345;52.334;10.392;2022-11-20T12:06:50;100275.87;;;2.51;69.37
61478;BME280;47345;52.334;10.392;2022-11-20T12:09:41;100274.46;;;2.50;69.19
61478;BME280;47345;52.334;10.392;2022-11-20T12:12:20;100274.10;;;2.46;69.04
61478;BME280;47345;52.334;10.392;2022-11-20T12:14:58;100276.92;;;2.45;69.48
61478;BME280;47345;52.334;10.392;2022-11-20T12:17:32;100281.54;;;2.44;69.30
61478;BME280;47345;52.334;10.392;2022-11-20T12:20:13;100277.08;;;2.44;69.09
61478;BME280;47345;52.334;10.392;2022-11-20T12:22:55;100272.45;;;2.45;69.41
61478;BME280;47345;52.334;10.392;2022-11-20T12:25:30;100268.27;;;2.47;69.20
61478;BME280;47345;52.334;10.392;2022-11-20T12:31:35;100272.36;;;2.49;69.22
61478;BME280;47345;52.334;10.392;2022-11-20T12:34:34;100273.00;;;2.50;69.63
61478;BME280;47345;52.334;10.392;2022-11-20T12:37:22;100267.56;;;2.45;69.59
61478;BME280;47345;52.334;10.392;2022-11-20T12:40:05;100266.67;;;2.45;69.83
61478;BME280;47345;52.334;10.392;2022-11-20T12:42:51;100265.99;;;2.41;69.54
61478;BME280;47345;52.334;10.392;2022-11-20T12:48:53;100269.91;;;2.39;69.92
61478;BME280;47345;52.334;10.392;2022-11-20T12:51:51;100268.81;;;2.35;69.41
61478;BME280;47345;52.334;10.392;2022-11-20T12:54:45;100264.72;;;2.33;69.20
61478;BME280;47345;52.334;10.392;2022-11-20T12:57:23;100259.12;;;2.30;68.71
61478;BME280;47345;52.334;10.392;2022-11-20T13:00:20;100253.82;;;2.25;68.35
61478;BME280;47345;52.334;10.392;2022-11-20T13:03:23;100260.92;;;2.26;68.52
61478;BME280;47345;52.334;10.392;2022-11-20T13:06:15;100258.77;;;2.24;68.69
61478;BME280;47345;52.334;10.392;2022-11-20T13:09:04;100261.50;;;2.26;69.20
61478;BME280;47345;52.334;10.392;2022-11-20T13:11:47;100258.50;;;2.27;69.19
61478;BME280;47345;52.334;10.392;2022-11-20T13:14:30;100255.06;;;2.27;68.75
61478;BME280;47345;52.334;10.392;2022-11-20T13:17:09;100254.46;;;2.29;68.71
61478;BME280;47345;52.334;10.392;2022-11-20T13:19:49;100249.93;;;2.28;68.44
61478;BME280;47345;52.334;10.392;2022-11-20T13:22:46;100255.77;;;2.26;68.77
61478;BME280;47345;52.334;10.392;2022-11-20T13:25:28;100248.12;;;2.28;69.05
61478;BME280;47345;52.334;10.392;2022-11-20T13:28:27;100250.81;;;2.32;69.02
61478;BME280;47345;52.334;10.392;2022-11-20T13:30:59;100251.23;;;2.34;69.25
61478;BME280;47345;52.334;10.392;2022-11-20T13:33:34;100250.02;;;2.34;68.96
61478;BME280;47345;52.334;10.392;2022-11-20T13:36:19;100247.83;;;2.32;69.03
61478;BME280;47345;52.334;10.392;2022-11-20T13:38:56;100247.05;;;2.33;69.47
61478;BME280;47345;52.334;10.392;2022-11-20T13:41:31;100244.73;;;2.36;69.76
61478;BME280;47345;52.334;10.392;2022-11-20T13:44:21;100248.71;;;2.38;69.50
61478;BME280;47345;52.334;10.392;2022-11-20T13:46:56;100247.46;;;2.40;69.82
61478;BME280;47345;52.334;10.392;2022-11-20T13:49:40;100240.79;;;2.41;69.60